Time;durP1;ratioP1;P1;durP2;ratioP2;P2;SDS_P1;SDS_P2;PMS_P1;PMS_P2;Temp;Humidity;BMP_temperature;BMP_pressure;BME280_temperature;BME280_humidity;BME280_pressure;Samples;Min_cycle;Max_cycle;Signal;HPM_P1;HPM_P2
2023/07/29 00:01:34;;;;;;;0.70;0.70;;;;;;;;;;5013411;28;20428;-80
2023/07/29 00:04:01;;;;;;;0.80;0.70;;;;;;;;;;5014292;28;20447;-80
2023/07/29 00:06:28;;;;;;;0.70;0.70;;;;;;;;;;5028134;28;20839;-81
2023/07/29 00:08:54;;;;;;;0.70;0.60;;;;;;;;;;5026459;28;20453;-81
2023/07/29 00:11:21;;;;;;;0.70;0.60;;;;;;;;;;5007457;28;20464;-80
2023/07/29 00:13:50;;;;;;;0.70;0.63;;;;;;;;;;5008673;28;20434;-81
2023/07/29 00:16:17;;;;;;;0.70;0.70;;;;;;;;;;5014822;28;20444;-79
2023/07/29 00:18:44;;;;;;;0.70;0.60;;;;;;;;;;5021729;28;20938;-79
2023/07/29 00:21:11;;;;;;;0.70;0.67;;;;;;;;;;5004466;28;20408;-79
2023/07/29 00:23:38;;;;;;;0.70;0.60;;;;;;;;;;5006504;28;20439;-80
2023/07/29 00:26:04;;;;;;;0.70;0.60;;;;;;;;;;5011331;28;20485;-80
2023/07/29 00:28:31;;;;;;;0.70;0.70;;;;;;;;;;5012365;28;20415;-79
2023/07/29 00:30:59;;;;;;;0.70;0.60;;;;;;;;;;5006022;28;20438;-79
2023/07/29 00:33:26;;;;;;;0.70;0.70;;;;;;;;;;5011199;28;20444;-79
2023/07/29 00:35:53;;;;;;;0.70;0.60;;;;;;;;;;5024345;28;20485;-80
2023/07/29 00:38:19;;;;;;;0.70;0.60;;;;;;;;;;5013565;28;20469;-80
2023/07/29 00:40:46;;;;;;;0.70;0.60;;;;;;;;;;5029226;28;20415;-80
2023/07/29 00:43:14;;;;;;;0.70;0.70;;;;;;;;;;5006142;28;20473;-80
2023/07/29 00:45:42;;;;;;;0.70;0.60;;;;;;;;;;5004563;28;21018;-80
2023/07/29 00:48:11;;;;;;;0.70;0.70;;;;;;;;;;5012750;28;20456;-79
2023/07/29 00:50:40;;;;;;;0.70;0.60;;;;;;;;;;5008561;28;20810;-80
2023/07/29 00:53:07;;;;;;;0.70;0.70;;;;;;;;;;5019111;28;20802;-80
2023/07/29 00:55:33;;;;;;;0.70;0.70;;;;;;;;;;5007039;28;20416;-79
2023/07/29 00:58:02;;;;;;;0.70;0.70;;;;;;;;;;5023138;28;20508;-79
2023/07/29 01:00:32;;;;;;;0.70;0.70;;;;;;;;;;5011966;28;20532;-80
2023/07/29 01:02:58;;;;;;;0.70;0.60;;;;;;;;;;5008860;28;20933;-80
2023/07/29 01:05:29;;;;;;;0.70;0.63;;;;;;;;;;5002852;28;20457;-79
2023/07/29 01:07:58;;;;;;;0.70;0.60;;;;;;;;;;5007090;28;21014;-81
2023/07/29 01:10:30;;;;;;;0.70;0.60;;;;;;;;;;5013206;28;20484;-78
2023/07/29 01:13:01;;;;;;;0.70;0.70;;;;;;;;;;4992376;28;20452;-79
2023/07/29 01:15:31;;;;;;;1.40;1.30;;;;;;;;;;5009199;28;20545;-81
2023/07/29 01:18:02;;;;;;;0.70;0.60;;;;;;;;;;5028675;28;20467;-80
2023/07/29 01:20:32;;;;;;;0.70;0.60;;;;;;;;;;5027220;28;20415;-79
2023/07/29 01:22:59;;;;;;;0.70;0.60;;;;;;;;;;5025878;28;20461;-80
2023/07/29 01:25:27;;;;;;;0.70;0.60;;;;;;;;;;5001875;28;20475;-80
2023/07/29 01:27:55;;;;;;;0.70;0.60;;;;;;;;;;4999817;28;20465;-79
2023/07/29 01:30:26;;;;;;;3.73;1.90;;;;;;;;;;5026578;28;20428;-80
2023/07/29 01:32:54;;;;;;;0.70;0.60;;;;;;;;;;4999131;28;20500;-80
2023/07/29 01:35:23;;;;;;;0.70;0.70;;;;;;;;;;5009373;28;20448;-80
2023/07/29 01:37:52;;;;;;;1.00;0.70;;;;;;;;;;5009404;28;20490;-79
2023/07/29 01:40:19;;;;;;;0.70;0.63;;;;;;;;;;5024144;28;20945;-80
2023/07/29 01:42:47;;;;;;;0.70;0.67;;;;;;;;;;5015548;28;20478;-80
2023/07/29 01:45:14;;;;;;;0.70;0.70;;;;;;;;;;5015419;28;20417;-79
2023/07/29 01:47:41;;;;;;;4.73;1.67;;;;;;;;;;5018456;28;20461;-78
2023/07/29 01:50:09;;;;;;;0.77;0.77;;;;;;;;;;5018174;28;20436;-79
2023/07/29 01:52:35;;;;;;;0.70;0.60;;;;;;;;;;5011549;28;20468;-78
2023/07/29 01:55:02;;;;;;;0.70;0.60;;;;;;;;;;5000260;28;20448;-79
2023/07/29 01:57:29;;;;;;;0.70;0.60;;;;;;;;;;5014240;28;20437;-79
2023/07/29 01:59:57;;;;;;;0.70;0.70;;;;;;;;;;5016312;28;20437;-78
2023/07/29 02:02:24;;;;;;;0.70;0.63;;;;;;;;;;5002688;28;20424;-78
2023/07/29 02:04:52;;;;;;;0.70;0.60;;;;;;;;;;5015727;28;20871;-75
2023/07/29 02:07:19;;;;;;;0.70;0.60;;;;;;;;;;5014369;28;20482;-76
2023/07/29 02:09:46;;;;;;;0.60;0.60;;;;;;;;;;5015615;28;20424;-76
2023/07/29 02:12:12;;;;;;;0.70;0.60;;;;;;;;;;5017034;28;20446;-76
2023/07/29 02:14:39;;;;;;;0.70;0.70;;;;;;;;;;5027784;28;20443;-76
2023/07/29 02:17:08;;;;;;;0.83;0.80;;;;;;;;;;5016060;28;20753;-75
2023/07/29 02:19:35;;;;;;;0.60;0.60;;;;;;;;;;5014007;28;20461;-75
2023/07/29 02:22:02;;;;;;;0.70;0.60;;;;;;;;;;5014954;28;20444;-76
2023/07/29 02:24:29;;;;;;;0.70;0.60;;;;;;;;;;5027648;28;20436;-75
2023/07/29 02:26:56;;;;;;;0.90;0.90;;;;;;;;;;5008978;28;20876;-75
2023/07/29 02:29:23;;;;;;;0.70;0.60;;;;;;;;;;5015780;28;20433;-75
2023/07/29 02:31:49;;;;;;;0.70;0.63;;;;;;;;;;5022532;28;20438;-75
2023/07/29 02:34:18;;;;;;;0.97;0.90;;;;;;;;;;5014881;28;20448;-75
2023/07/29 02:36:45;;;;;;;0.70;0.60;;;;;;;;;;5024667;28;20426;-76
2023/07/29 02:39:12;;;;;;;0.70;0.60;;;;;;;;;;5027250;28;20519;-75
2023/07/29 02:41:39;;;;;;;0.70;0.70;;;;;;;;;;5008976;28;20859;-76
2023/07/29 02:44:07;;;;;;;0.70;0.70;;;;;;;;;;5012849;28;20411;-74
2023/07/29 02:46:34;;;;;;;0.60;0.60;;;;;;;;;;5007650;28;20480;-75
2023/07/29 02:49:01;;;;;;;0.70;0.60;;;;;;;;;;5013455;28;20835;-75
2023/07/29 02:51:29;;;;;;;0.67;0.60;;;;;;;;;;5014462;28;20437;-74
2023/07/29 02:53:56;;;;;;;0.70;0.60;;;;;;;;;;5024706;28;21054;-75
2023/07/29 02:56:23;;;;;;;0.70;0.70;;;;;;;;;;5029008;28;20438;-75
2023/07/29 02:58:51;;;;;;;0.60;0.60;;;;;;;;;;5016541;28;20437;-75
2023/07/29 03:01:18;;;;;;;1.20;1.10;;;;;;;;;;5015699;28;20444;-75
2023/07/29 03:03:45;;;;;;;1.20;1.10;;;;;;;;;;5012474;28;20413;-75
2023/07/29 03:06:13;;;;;;;0.70;0.70;;;;;;;;;;5025726;28;20440;-76
2023/07/29 03:08:41;;;;;;;0.67;0.60;;;;;;;;;;5015631;28;20935;-76
2023/07/29 03:11:09;;;;;;;0.70;0.60;;;;;;;;;;5008526;28;20477;-75
2023/07/29 03:13:35;;;;;;;0.70;0.70;;;;;;;;;;4994044;28;20455;-75
2023/07/29 03:16:06;;;;;;;0.60;0.60;;;;;;;;;;5029010;28;20410;-75
2023/07/29 03:18:33;;;;;;;0.70;0.70;;;;;;;;;;5004924;28;20785;-76
2023/07/29 03:21:00;;;;;;;0.70;0.70;;;;;;;;;;4999042;28;20483;-75
2023/07/29 03:23:27;;;;;;;0.70;0.70;;;;;;;;;;5014865;28;20459;-75
2023/07/29 03:25:57;;;;;;;0.70;0.67;;;;;;;;;;5015007;28;20519;-76
2023/07/29 03:28:25;;;;;;;0.67;0.60;;;;;;;;;;4992076;28;20480;-75
2023/07/29 03:30:51;;;;;;;0.60;0.60;;;;;;;;;;5016035;28;20439;-76
2023/07/29 03:33:18;;;;;;;0.80;0.80;;;;;;;;;;5020536;28;20430;-75
2023/07/29 03:35:45;;;;;;;1.10;1.00;;;;;;;;;;5007331;28;20437;-75
2023/07/29 03:38:11;;;;;;;0.60;0.60;;;;;;;;;;5013130;28;20804;-75
2023/07/29 03:40:38;;;;;;;0.60;0.60;;;;;;;;;;5023952;28;20922;-75
2023/07/29 03:43:07;;;;;;;0.70;0.70;;;;;;;;;;5020871;28;20449;-76
2023/07/29 03:45:34;;;;;;;0.70;0.70;;;;;;;;;;5024492;28;20791;-76
2023/07/29 03:48:01;;;;;;;0.60;0.60;;;;;;;;;;5006590;28;20473;-75
2023/07/29 03:50:29;;;;;;;0.70;0.70;;;;;;;;;;5013271;28;20433;-77
2023/07/29 03:52:56;;;;;;;0.70;0.70;;;;;;;;;;5013123;28;20488;-76
2023/07/29 03:55:22;;;;;;;0.70;0.70;;;;;;;;;;5025133;28;20444;-75
2023/07/29 03:57:49;;;;;;;0.70;0.70;;;;;;;;;;5026598;28;20426;-76
2023/07/29 04:00:18;;;;;;;0.67;0.60;;;;;;;;;;5008256;28;20473;-75
2023/07/29 04:02:48;;;;;;;0.70;0.70;;;;;;;;;;5014758;28;20542;-76
2023/07/29 04:05:14;;;;;;;0.60;0.60;;;;;;;;;;5007332;28;20946;-75
2023/07/29 04:07:41;;;;;;;0.70;0.70;;;;;;;;;;5006577;28;20559;-76
2023/07/29 04:10:08;;;;;;;0.70;0.70;;;;;;;;;;5014104;28;20464;-75
2023/07/29 04:12:35;;;;;;;0.70;0.70;;;;;;;;;;4989372;28;21012;-78
2023/07/29 04:15:02;;;;;;;0.70;0.70;;;;;;;;;;5009038;28;20519;-75
2023/07/29 04:17:30;;;;;;;0.60;0.57;;;;;;;;;;5013937;28;20445;-75
2023/07/29 04:19:56;;;;;;;0.70;0.70;;;;;;;;;;5006612;28;20455;-77
2023/07/29 04:22:28;;;;;;;1.73;1.63;;;;;;;;;;5022712;28;20453;-76
2023/07/29 04:24:55;;;;;;;0.70;0.60;;;;;;;;;;5024343;28;20484;-75
2023/07/29 04:27:22;;;;;;;1.00;0.90;;;;;;;;;;5014722;28;20487;-77
2023/07/29 04:29:48;;;;;;;0.60;0.60;;;;;;;;;;5014355;28;20464;-74
2023/07/29 04:32:15;;;;;;;0.87;0.83;;;;;;;;;;5022477;28;20446;-76
2023/07/29 04:34:43;;;;;;;0.60;0.60;;;;;;;;;;5023900;28;20457;-78
2023/07/29 04:37:10;;;;;;;0.77;0.77;;;;;;;;;;5024877;28;20472;-75
2023/07/29 04:39:37;;;;;;;0.70;0.70;;;;;;;;;;5006819;28;20435;-76
2023/07/29 04:42:04;;;;;;;0.70;0.70;;;;;;;;;;4996353;28;20465;-75
2023/07/29 04:44:30;;;;;;;0.60;0.60;;;;;;;;;;5013434;28;20446;-75
2023/07/29 04:46:57;;;;;;;0.60;0.60;;;;;;;;;;5014360;28;20467;-75
2023/07/29 04:49:24;;;;;;;0.70;0.70;;;;;;;;;;5008751;28;20461;-76
2023/07/29 04:51:52;;;;;;;0.70;0.70;;;;;;;;;;5011836;28;20422;-75
2023/07/29 04:54:20;;;;;;;0.70;0.70;;;;;;;;;;5009576;28;20838;-75
2023/07/29 04:56:47;;;;;;;0.80;0.80;;;;;;;;;;5011383;28;20435;-76
2023/07/29 04:59:16;;;;;;;0.70;0.70;;;;;;;;;;5011872;28;20440;-76
2023/07/29 05:01:43;;;;;;;0.70;0.70;;;;;;;;;;5008278;28;20441;-76
2023/07/29 05:04:10;;;;;;;0.70;0.70;;;;;;;;;;5025061;28;20441;-78
2023/07/29 05:06:37;;;;;;;0.70;0.70;;;;;;;;;;5009500;28;20434;-76
2023/07/29 05:09:15;;;;;;;0.60;0.60;;;;;;;;;;5011891;28;20481;-73
2023/07/29 05:11:45;;;;;;;0.70;0.70;;;;;;;;;;5010289;28;20445;-75
2023/07/29 05:14:12;;;;;;;0.67;0.67;;;;;;;;;;5016152;28;20859;-75
2023/07/29 05:16:39;;;;;;;0.63;0.60;;;;;;;;;;5009593;28;20460;-76
2023/07/29 05:19:06;;;;;;;0.73;0.73;;;;;;;;;;5013498;28;20437;-75
2023/07/29 05:21:33;;;;;;;0.60;0.53;;;;;;;;;;5023119;28;20437;-77
2023/07/29 05:23:59;;;;;;;0.60;0.60;;;;;;;;;;5011516;28;20462;-75
2023/07/29 05:26:27;;;;;;;0.70;0.70;;;;;;;;;;5024561;28;20455;-75
2023/07/29 05:28:54;;;;;;;0.60;0.60;;;;;;;;;;5013529;28;20433;-77
2023/07/29 05:31:22;;;;;;;0.60;0.60;;;;;;;;;;5008210;28;20467;-76
2023/07/29 05:33:52;;;;;;;0.97;0.97;;;;;;;;;;5012026;28;20952;-75
2023/07/29 05:36:26;;;;;;;0.90;0.90;;;;;;;;;;4989798;28;20829;-75
2023/07/29 05:38:53;;;;;;;0.60;0.60;;;;;;;;;;5011151;28;20453;-76
2023/07/29 05:41:19;;;;;;;0.70;0.70;;;;;;;;;;5004904;28;20489;-75
2023/07/29 05:43:47;;;;;;;0.60;0.60;;;;;;;;;;5025685;28;20492;-75
2023/07/29 05:46:16;;;;;;;0.60;0.60;;;;;;;;;;5005670;28;21026;-76
2023/07/29 05:48:43;;;;;;;0.60;0.60;;;;;;;;;;5024253;28;21000;-74
2023/07/29 05:51:10;;;;;;;0.60;0.60;;;;;;;;;;5023864;28;20430;-77
2023/07/29 05:53:37;;;;;;;1.37;1.27;;;;;;;;;;5011713;28;20495;-77
2023/07/29 05:56:04;;;;;;;3.23;0.97;;;;;;;;;;5021301;28;20431;-77
2023/07/29 05:58:31;;;;;;;0.60;0.60;;;;;;;;;;5012493;28;20843;-76
2023/07/29 06:00:59;;;;;;;0.60;0.60;;;;;;;;;;5013380;28;20422;-77
2023/07/29 06:03:26;;;;;;;0.70;0.70;;;;;;;;;;5005965;28;20421;-76
2023/07/29 06:05:53;;;;;;;0.63;0.60;;;;;;;;;;5015628;28;20860;-78
2023/07/29 06:08:20;;;;;;;0.70;0.70;;;;;;;;;;5005346;28;20534;-76
2023/07/29 06:10:47;;;;;;;0.60;0.60;;;;;;;;;;5029323;28;20464;-76
2023/07/29 06:13:14;;;;;;;1.83;1.13;;;;;;;;;;5014518;28;20825;-77
2023/07/29 06:15:41;;;;;;;0.80;0.80;;;;;;;;;;5015845;28;20432;-76
2023/07/29 06:18:09;;;;;;;0.70;0.70;;;;;;;;;;5031281;28;20511;-76
2023/07/29 06:20:37;;;;;;;0.63;0.63;;;;;;;;;;5027055;28;20424;-76
2023/07/29 06:23:03;;;;;;;5.43;1.27;;;;;;;;;;5010429;28;20522;-76
2023/07/29 06:25:30;;;;;;;0.60;0.60;;;;;;;;;;5013761;28;20532;-75
2023/07/29 06:27:58;;;;;;;0.60;0.60;;;;;;;;;;5011645;28;20439;-76
2023/07/29 06:30:25;;;;;;;1.00;0.97;;;;;;;;;;5027035;28;20887;-77
2023/07/29 06:32:51;;;;;;;0.80;0.80;;;;;;;;;;5025144;28;20448;-77
2023/07/29 06:35:19;;;;;;;0.70;0.70;;;;;;;;;;5014867;28;20906;-78
2023/07/29 06:37:47;;;;;;;1.30;1.20;;;;;;;;;;5008626;28;20455;-76
2023/07/29 06:40:14;;;;;;;1.67;1.57;;;;;;;;;;5014658;28;20555;-78
2023/07/29 06:42:40;;;;;;;0.60;0.60;;;;;;;;;;5008081;28;20442;-79
2023/07/29 06:45:08;;;;;;;0.60;0.60;;;;;;;;;;5029390;28;20441;-78
2023/07/29 06:47:35;;;;;;;0.70;0.70;;;;;;;;;;5005848;28;20816;-78
2023/07/29 06:50:02;;;;;;;0.60;0.60;;;;;;;;;;5013805;28;20408;-79
2023/07/29 06:52:30;;;;;;;0.90;0.90;;;;;;;;;;5023127;28;20501;-78
2023/07/29 06:54:56;;;;;;;0.70;0.70;;;;;;;;;;5015062;28;20918;-77
2023/07/29 06:57:23;;;;;;;0.60;0.60;;;;;;;;;;5013427;28;20441;-78
2023/07/29 06:59:50;;;;;;;0.60;0.60;;;;;;;;;;5013568;28;20444;-78
2023/07/29 07:02:16;;;;;;;0.70;0.70;;;;;;;;;;5013993;28;20447;-77
2023/07/29 07:04:44;;;;;;;0.80;0.80;;;;;;;;;;5014182;28;20445;-78
2023/07/29 07:07:10;;;;;;;0.70;0.70;;;;;;;;;;5025109;28;20522;-77
2023/07/29 07:09:38;;;;;;;0.70;0.70;;;;;;;;;;5013152;28;20431;-79
2023/07/29 07:12:05;;;;;;;0.70;0.60;;;;;;;;;;4998817;28;20441;-78
2023/07/29 07:14:32;;;;;;;0.90;0.90;;;;;;;;;;5025298;28;20451;-80
2023/07/29 07:16:59;;;;;;;0.70;0.60;;;;;;;;;;5013465;28;20427;-78
2023/07/29 07:19:25;;;;;;;0.60;0.60;;;;;;;;;;5014196;28;20441;-79
2023/07/29 07:21:52;;;;;;;1.73;1.10;;;;;;;;;;5025352;28;20459;-81
2023/07/29 07:24:19;;;;;;;0.60;0.60;;;;;;;;;;5025638;28;20425;-79
2023/07/29 07:26:47;;;;;;;1.20;1.10;;;;;;;;;;5025576;28;21188;-80
2023/07/29 07:29:13;;;;;;;0.70;0.60;;;;;;;;;;5013476;28;20447;-80
2023/07/29 07:31:40;;;;;;;0.70;0.67;;;;;;;;;;5030149;28;20416;-81
2023/07/29 07:34:07;;;;;;;1.03;0.90;;;;;;;;;;5023142;28;20430;-81
2023/07/29 07:36:33;;;;;;;0.70;0.60;;;;;;;;;;5023837;28;20701;-80
2023/07/29 07:39:00;;;;;;;0.70;0.60;;;;;;;;;;5021425;28;20493;-80
2023/07/29 07:41:27;;;;;;;0.80;0.80;;;;;;;;;;5026860;28;20849;-80
2023/07/29 07:43:55;;;;;;;0.70;0.60;;;;;;;;;;5024287;28;21017;-80
2023/07/29 07:46:22;;;;;;;0.70;0.60;;;;;;;;;;5011426;28;20852;-79
2023/07/29 07:48:48;;;;;;;1.03;0.97;;;;;;;;;;5013028;28;21072;-80
2023/07/29 07:51:15;;;;;;;0.70;0.70;;;;;;;;;;5008553;28;20418;-81
2023/07/29 07:53:42;;;;;;;0.70;0.60;;;;;;;;;;5026448;28;20502;-77
2023/07/29 07:56:08;;;;;;;0.70;0.70;;;;;;;;;;5027434;28;20468;-77
2023/07/29 07:58:35;;;;;;;0.70;0.63;;;;;;;;;;5024691;28;20430;-82
2023/07/29 08:01:04;;;;;;;0.70;0.60;;;;;;;;;;5008306;28;20439;-79
2023/07/29 08:03:32;;;;;;;0.70;0.60;;;;;;;;;;5012907;28;20810;-79
2023/07/29 08:05:59;;;;;;;0.70;0.60;;;;;;;;;;5024009;28;20518;-79
2023/07/29 08:08:25;;;;;;;0.70;0.60;;;;;;;;;;5007022;28;20483;-80
2023/07/29 08:10:52;;;;;;;0.70;0.60;;;;;;;;;;5025446;28;20445;-78
2023/07/29 08:13:19;;;;;;;0.80;0.80;;;;;;;;;;5011911;28;20465;-80
2023/07/29 08:15:47;;;;;;;0.70;0.60;;;;;;;;;;5012873;28;20495;-80
2023/07/29 08:18:15;;;;;;;0.70;0.70;;;;;;;;;;5009006;28;20438;-79
2023/07/29 08:20:51;;;;;;;0.70;0.60;;;;;;;;;;5027776;28;20449;-79
2023/07/29 08:23:17;;;;;;;0.70;0.60;;;;;;;;;;5012527;28;20510;-79
2023/07/29 08:25:44;;;;;;;0.70;0.60;;;;;;;;;;5022740;28;20494;-79
2023/07/29 08:28:11;;;;;;;0.90;0.90;;;;;;;;;;4993339;28;20461;-79
2023/07/29 08:30:38;;;;;;;0.90;0.90;;;;;;;;;;5008694;28;20483;-79
2023/07/29 08:33:04;;;;;;;0.70;0.70;;;;;;;;;;5011286;28;20969;-78
2023/07/29 08:35:32;;;;;;;0.70;0.70;;;;;;;;;;5014025;28;20445;-80
2023/07/29 08:37:59;;;;;;;0.70;0.40;;;;;;;;;;5022477;28;20409;-77
2023/07/29 08:40:28;;;;;;;0.70;0.50;;;;;;;;;;5019819;28;20404;-80
2023/07/29 08:42:57;;;;;;;0.70;0.50;;;;;;;;;;5012582;28;20411;-80
2023/07/29 08:45:24;;;;;;;0.70;0.50;;;;;;;;;;5005113;28;20488;-76
2023/07/29 08:47:52;;;;;;;0.70;0.50;;;;;;;;;;5011473;28;20404;-79
2023/07/29 08:50:20;;;;;;;0.70;0.50;;;;;;;;;;5005984;28;20441;-81
2023/07/29 08:52:49;;;;;;;0.70;0.50;;;;;;;;;;4991524;28;20425;-80
2023/07/29 08:55:16;;;;;;;0.90;0.50;;;;;;;;;;5020549;28;20418;-80
2023/07/29 08:57:43;;;;;;;0.70;0.50;;;;;;;;;;4991645;28;20469;-79
2023/07/29 09:00:10;;;;;;;0.70;0.50;;;;;;;;;;5026460;28;20408;-80
2023/07/29 09:02:36;;;;;;;0.70;0.50;;;;;;;;;;5012401;28;20403;-80
2023/07/29 09:05:05;;;;;;;0.70;0.60;;;;;;;;;;5022402;28;20409;-80
2023/07/29 09:07:34;;;;;;;0.70;0.50;;;;;;;;;;5021415;28;20416;-80
2023/07/29 09:10:02;;;;;;;0.90;0.60;;;;;;;;;;5024834;28;20921;-80
2023/07/29 09:12:29;;;;;;;5.30;0.80;;;;;;;;;;5023563;28;20420;-81
2023/07/29 09:14:55;;;;;;;0.70;0.50;;;;;;;;;;5022339;28;20407;-80
2023/07/29 09:17:22;;;;;;;0.70;0.50;;;;;;;;;;5020969;28;20414;-79
2023/07/29 09:19:50;;;;;;;0.70;0.50;;;;;;;;;;5006098;28;20408;-82
2023/07/29 09:22:17;;;;;;;0.80;0.80;;;;;;;;;;5022854;28;20221;-81
2023/07/29 09:24:44;;;;;;;0.70;0.60;;;;;;;;;;4996512;28;20442;-80
2023/07/29 09:27:22;;;;;;;0.70;0.60;;;;;;;;;;5012123;28;20445;-80
2023/07/29 09:29:49;;;;;;;;;;;;;;;;;;5024699;28;20311;-80
2023/07/29 09:32:15;;;;;;;;;;;;;;;;;;5025738;28;19967;-81
2023/07/29 09:34:42;;;;;;;;;;;;;;;;;;5024791;28;20318;-81
2023/07/29 09:37:08;;;;;;;;;;;;;;;;;;5012341;28;19921;-80
2023/07/29 09:39:35;;;;;;;;;;;;;;;;;;5018273;28;19925;-81
2023/07/29 09:42:02;;;;;;;0.70;0.60;;;;;;;;;;5009455;28;20774;-80
2023/07/29 09:44:35;;;;;;;0.70;0.60;;;;;;;;;;5028952;28;20799;-80
2023/07/29 09:47:02;;;;;;;;;;;;;;;;;;5027899;28;20298;-81
2023/07/29 09:49:34;;;;;;;0.70;0.50;;;;;;;;;;5017776;28;20499;-81
2023/07/29 09:52:03;;;;;;;0.70;0.60;;;;;;;;;;5023525;28;20202;-81
2023/07/29 09:54:30;;;;;;;0.70;0.67;;;;;;;;;;5020518;28;20426;-80
2023/07/29 09:56:57;;;;;;;0.70;0.50;;;;;;;;;;5016593;28;20411;-81
2023/07/29 09:59:23;;;;;;;0.70;0.50;;;;;;;;;;5034129;28;20419;-81
2023/07/29 10:01:51;;;;;;;0.77;0.67;;;;;;;;;;5038674;28;20440;-80
2023/07/29 10:04:18;;;;;;;0.70;0.50;;;;;;;;;;5036780;28;20407;-81
2023/07/29 10:06:46;;;;;;;0.70;0.50;;;;;;;;;;5039070;28;20414;-81
2023/07/29 10:09:13;;;;;;;0.70;0.60;;;;;;;;;;5024668;28;20227;-81
2023/07/29 10:11:40;;;;;;;0.70;0.50;;;;;;;;;;5023643;28;20439;-81
2023/07/29 10:14:08;;;;;;;0.82;0.50;;;;;;;;;;5037723;28;20846;-80
2023/07/29 10:16:36;;;;;;;1.50;1.10;;;;;;;;;;5037890;28;20202;-82
2023/07/29 10:19:04;;;;;;;0.70;0.50;;;;;;;;;;5014447;28;20802;-81
2023/07/29 10:21:31;;;;;;;;;;;;;;;;;;5014403;28;20335;-80
2023/07/29 10:23:59;;;;;;;0.70;0.60;;;;;;;;;;5035802;28;20283;-81
2023/07/29 10:26:26;;;;;;;0.70;0.60;;;;;;;;;;5023535;28;20848;-81
2023/07/29 10:28:54;;;;;;;0.70;0.60;;;;;;;;;;5034369;28;20559;-81
2023/07/29 10:31:22;;;;;;;0.70;0.60;;;;;;;;;;5036205;28;20440;-81
2023/07/29 10:33:49;;;;;;;0.70;0.60;;;;;;;;;;5020893;28;20432;-80
2023/07/29 10:36:17;;;;;;;0.70;0.63;;;;;;;;;;5035537;28;20468;-81
2023/07/29 10:38:47;;;;;;;1.80;0.93;;;;;;;;;;5033179;28;20464;-81
2023/07/29 10:41:13;;;;;;;0.80;0.70;;;;;;;;;;5007031;28;20453;-81
2023/07/29 10:43:40;;;;;;;0.70;0.70;;;;;;;;;;5031824;28;20555;-80
2023/07/29 10:46:16;;;;;;;0.70;0.50;;;;;;;;;;5029174;28;20502;-79
2023/07/29 10:48:43;;;;;;;;;;;;;;;;;;5029307;28;20044;-82
2023/07/29 10:51:32;;;;;;;0.90;0.80;;;;;;;;;;5013399;28;20412;-80
2023/07/29 10:54:01;;;;;;;0.70;0.50;;;;;;;;;;5027396;28;20415;-80
2023/07/29 10:56:28;;;;;;;0.70;0.70;;;;;;;;;;5028115;28;20202;-81
2023/07/29 10:58:57;;;;;;;0.70;0.60;;;;;;;;;;5009614;28;20453;-80
2023/07/29 11:01:28;;;;;;;0.70;0.50;;;;;;;;;;5017200;28;20487;-80
2023/07/29 11:04:13;;;;;;;0.70;0.50;;;;;;;;;;5015629;28;20994;-81
2023/07/29 11:06:55;;;;;;;0.70;0.70;;;;;;;;;;5032275;28;20201;-80
2023/07/29 11:09:42;;;;;;;0.70;0.60;;;;;;;;;;5015253;28;20595;-80
2023/07/29 11:12:24;;;;;;;0.70;0.70;;;;;;;;;;5006659;28;20452;-81
2023/07/29 11:14:51;;;;;;;0.80;0.60;;;;;;;;;;5025050;28;20485;-81
2023/07/29 11:17:18;;;;;;;0.70;0.60;;;;;;;;;;5016020;28;20528;-80
2023/07/29 11:19:45;;;;;;;0.70;0.60;;;;;;;;;;5017124;28;20445;-81
2023/07/29 11:22:12;;;;;;;0.70;0.60;;;;;;;;;;5009636;28;20483;-82
2023/07/29 11:24:42;;;;;;;0.70;0.50;;;;;;;;;;5014510;28;20493;-81
2023/07/29 11:27:11;;;;;;;0.70;0.60;;;;;;;;;;5014738;28;20670;-81
2023/07/29 11:29:37;;;;;;;2.10;1.37;;;;;;;;;;5015770;28;20472;-81
2023/07/29 11:32:04;;;;;;;0.70;0.60;;;;;;;;;;5013754;28;20937;-81
2023/07/29 11:34:31;;;;;;;0.70;0.60;;;;;;;;;;5005545;28;20437;-82
2023/07/29 11:36:58;;;;;;;0.70;0.70;;;;;;;;;;5014887;28;20929;-81
2023/07/29 11:39:25;;;;;;;0.80;0.70;;;;;;;;;;5020823;28;20898;-79
2023/07/29 11:41:53;;;;;;;6.97;1.43;;;;;;;;;;5025442;28;20500;-79
2023/07/29 11:44:19;;;;;;;0.70;0.60;;;;;;;;;;5025385;28;20444;-82
2023/07/29 11:46:48;;;;;;;0.80;0.60;;;;;;;;;;5027369;28;20437;-81
2023/07/29 11:49:15;;;;;;;0.70;0.60;;;;;;;;;;5012393;28;21012;-81
2023/07/29 11:51:42;;;;;;;0.70;0.60;;;;;;;;;;5027255;28;20432;-80
2023/07/29 11:54:08;;;;;;;0.70;0.60;;;;;;;;;;5013467;28;20465;-79
2023/07/29 11:56:35;;;;;;;0.80;0.50;;;;;;;;;;5023152;28;20426;-80
2023/07/29 11:59:04;;;;;;;0.70;0.60;;;;;;;;;;5026827;28;20199;-81
2023/07/29 12:01:30;;;;;;;2.03;1.83;;;;;;;;;;5012423;28;20481;-80
2023/07/29 12:03:58;;;;;;;0.70;0.60;;;;;;;;;;5013664;28;20498;-81
2023/07/29 12:06:25;;;;;;;0.70;0.60;;;;;;;;;;5021310;28;21036;-80
2023/07/29 12:08:52;;;;;;;0.80;0.63;;;;;;;;;;4996978;28;20852;-80
2023/07/29 12:11:20;;;;;;;1.47;1.00;;;;;;;;;;5023690;28;20828;-80
2023/07/29 12:13:47;;;;;;;0.70;0.40;;;;;;;;;;5024410;28;20409;-81
2023/07/29 12:16:20;;;;;;;0.70;0.60;;;;;;;;;;5014869;28;20234;-81
2023/07/29 12:18:48;;;;;;;0.80;0.80;;;;;;;;;;5024621;28;20465;-79
2023/07/29 12:21:15;;;;;;;0.70;0.50;;;;;;;;;;5032763;28;20472;-80
2023/07/29 12:23:41;;;;;;;;;;;;;;;;;;5026027;28;20780;-81
2023/07/29 12:26:08;;;;;;;0.70;0.50;;;;;;;;;;5021229;28;20403;-81
2023/07/29 12:28:35;;;;;;;1.23;1.00;;;;;;;;;;5010521;28;20191;-78
2023/07/29 12:31:01;;;;;;;0.70;0.50;;;;;;;;;;5007493;28;20473;-81
2023/07/29 12:33:31;;;;;;;0.70;0.50;;;;;;;;;;5020620;28;20440;-82
2023/07/29 12:35:57;;;;;;;0.70;0.60;;;;;;;;;;5007984;28;21216;-80
2023/07/29 12:38:25;;;;;;;0.70;0.50;;;;;;;;;;5024667;28;20461;-79
2023/07/29 12:40:53;;;;;;;0.80;0.70;;;;;;;;;;5022570;28;20433;-81
2023/07/29 12:43:19;;;;;;;0.70;0.50;;;;;;;;;;5012992;28;20490;-79
2023/07/29 12:45:46;;;;;;;0.70;0.60;;;;;;;;;;5023931;28;20426;-80
2023/07/29 12:48:13;;;;;;;0.70;0.50;;;;;;;;;;5008257;28;20965;-80
2023/07/29 12:50:41;;;;;;;0.70;0.50;;;;;;;;;;5009064;28;20468;-80
2023/07/29 12:53:10;;;;;;;0.80;0.60;;;;;;;;;;5024854;28;20473;-78
2023/07/29 12:55:37;;;;;;;0.80;0.60;;;;;;;;;;4994865;28;20470;-80
2023/07/29 12:58:04;;;;;;;1.07;0.97;;;;;;;;;;5014050;28;20448;-79
2023/07/29 13:00:30;;;;;;;0.70;0.50;;;;;;;;;;5008906;28;20426;-81
2023/07/29 13:02:57;;;;;;;0.70;0.60;;;;;;;;;;5022648;28;20861;-82
2023/07/29 13:05:25;;;;;;;0.80;0.70;;;;;;;;;;5027404;28;20465;-81
2023/07/29 13:07:53;;;;;;;0.70;0.60;;;;;;;;;;5026277;28;20503;-80
2023/07/29 13:10:20;;;;;;;0.70;0.60;;;;;;;;;;5025432;28;20953;-82
2023/07/29 13:12:46;;;;;;;0.70;0.60;;;;;;;;;;5028410;28;20445;-82
2023/07/29 13:15:13;;;;;;;0.70;0.60;;;;;;;;;;5033499;28;20886;-81
2023/07/29 13:17:41;;;;;;;0.70;0.50;;;;;;;;;;5019313;28;20425;-81
2023/07/29 13:20:08;;;;;;;0.70;0.40;;;;;;;;;;5034251;28;20444;-81
2023/07/29 13:22:35;;;;;;;0.70;0.60;;;;;;;;;;5016014;28;20308;-81
2023/07/29 13:25:03;;;;;;;0.70;0.60;;;;;;;;;;5031937;28;20451;-80
2023/07/29 13:27:30;;;;;;;0.70;0.60;;;;;;;;;;5004478;28;20441;-81
2023/07/29 13:29:56;;;;;;;0.70;0.60;;;;;;;;;;5030642;28;20464;-81
2023/07/29 13:32:23;;;;;;;0.70;0.60;;;;;;;;;;5019644;28;21020;-81
2023/07/29 13:34:50;;;;;;;0.80;0.70;;;;;;;;;;5012557;28;20433;-81
2023/07/29 13:37:16;;;;;;;4.70;0.90;;;;;;;;;;5031393;28;20498;-81
2023/07/29 13:39:43;;;;;;;0.70;0.63;;;;;;;;;;5015139;28;20440;-81
2023/07/29 13:42:11;;;;;;;0.73;0.67;;;;;;;;;;5016291;28;20444;-79
2023/07/29 13:44:38;;;;;;;0.70;0.60;;;;;;;;;;5018330;28;20793;-80
2023/07/29 13:47:05;;;;;;;0.70;0.70;;;;;;;;;;5021694;28;20868;-81
2023/07/29 13:49:32;;;;;;;;;;;;;;;;;;5023641;28;20335;-82
2023/07/29 13:51:59;;;;;;;0.70;0.50;;;;;;;;;;5023939;28;21062;-81
2023/07/29 13:54:28;;;;;;;1.67;1.57;;;;;;;;;;5001081;28;20211;-80
2023/07/29 13:56:55;;;;;;;0.80;0.80;;;;;;;;;;5020715;28;20425;-80
2023/07/29 13:59:23;;;;;;;0.80;0.77;;;;;;;;;;5020548;28;20468;-79
2023/07/29 14:01:50;;;;;;;0.87;0.87;;;;;;;;;;5040971;28;21012;-80
2023/07/29 14:04:16;;;;;;;0.73;0.70;;;;;;;;;;5024286;28;20773;-79
2023/07/29 14:06:43;;;;;;;0.70;0.60;;;;;;;;;;5042129;28;20782;-80
2023/07/29 14:09:14;;;;;;;1.20;1.10;;;;;;;;;;5031883;28;20445;-80
2023/07/29 14:11:40;;;;;;;0.80;0.80;;;;;;;;;;5043105;28;20500;-79
2023/07/29 14:14:07;;;;;;;0.70;0.60;;;;;;;;;;5044794;28;20434;-77
2023/07/29 14:16:35;;;;;;;0.70;0.63;;;;;;;;;;5046064;28;20411;-78
2023/07/29 14:19:03;;;;;;;0.70;0.60;;;;;;;;;;5035477;28;20429;-78
2023/07/29 14:21:29;;;;;;;3.80;2.60;;;;;;;;;;5039848;28;20434;-75
2023/07/29 14:23:56;;;;;;;0.70;0.60;;;;;;;;;;5037718;28;20520;-79
2023/07/29 14:26:22;;;;;;;0.80;0.77;;;;;;;;;;5046845;28;20459;-77
2023/07/29 14:28:49;;;;;;;0.70;0.60;;;;;;;;;;5036803;28;20922;-77
2023/07/29 14:31:17;;;;;;;0.80;0.80;;;;;;;;;;5039198;28;20834;-78
2023/07/29 14:33:45;;;;;;;0.70;0.60;;;;;;;;;;5025871;28;20472;-79
2023/07/29 14:36:12;;;;;;;0.70;0.50;;;;;;;;;;5020244;28;20445;-80
2023/07/29 14:38:38;;;;;;;0.70;0.60;;;;;;;;;;5038011;28;20473;-79
2023/07/29 14:41:05;;;;;;;0.70;0.60;;;;;;;;;;5034874;28;20776;-80
2023/07/29 14:43:32;;;;;;;0.70;0.60;;;;;;;;;;5033702;28;20921;-81
2023/07/29 14:45:58;;;;;;;0.70;0.60;;;;;;;;;;5021546;28;20475;-77
2023/07/29 14:48:25;;;;;;;0.70;0.60;;;;;;;;;;5036759;28;20441;-80